Time;durP1;ratioP1;P1;durP2;ratioP2;P2;SDS_P1;SDS_P2;PMS_P1;PMS_P2;Temp;Humidity;BMP_temperature;BMP_pressure;BME280_temperature;BME280_humidity;BME280_pressure;Samples;Min_cycle;Max_cycle;Signal;HPM_P1;HPM_P2
2022/01/12 00:01:46;;;;;;;;;4.20;4.20;;;;;2.32;80.47;101810.28;5090380;28;8842;-59
2022/01/12 00:04:14;;;;;;;;;3.20;3.20;;;;;2.24;80.28;101819.16;5090471;28;8838;-59
2022/01/12 00:06:42;;;;;;;;;3.80;3.20;;;;;2.13;80.77;101816.69;5098616;28;8982;-59
2022/01/12 00:09:10;;;;;;;;;4.80;3.60;;;;;2.02;80.80;101823.91;5112146;28;8855;-59
2022/01/12 00:11:38;;;;;;;;;5.60;4.00;;;;;1.93;80.93;101815.28;5113077;28;8844;-59
2022/01/12 00:14:05;;;;;;;;;3.20;3.20;;;;;1.83;81.12;101816.31;5111770;28;8964;-59
2022/01/12 00:16:33;;;;;;;;;6.00;6.00;;;;;1.73;81.26;101812.94;5108617;28;8842;-59
2022/01/12 00:19:01;;;;;;;;;2.00;2.00;;;;;1.65;81.14;101812.16;5092442;28;8888;-59
2022/01/12 00:21:29;;;;;;;;;4.80;3.60;;;;;1.57;81.23;101806.16;5091984;28;8944;-59
2022/01/12 00:23:56;;;;;;;;;0.20;0.00;;;;;1.51;81.87;101798.38;5091143;28;8965;-59
2022/01/12 00:34:39;;;;;;;;;1.40;1.00;;;;;1.57;81.28;101797.41;5110986;28;8851;-59
2022/01/12 00:37:07;;;;;;;;;3.40;3.40;;;;;1.69;81.62;101803.38;5103898;28;8952;-59
2022/01/12 00:39:35;;;;;;;;;3.20;3.20;;;;;1.81;81.21;101792.69;5092324;28;8990;-59
2022/01/12 00:42:03;;;;;;;;;4.40;3.80;;;;;1.94;81.20;101802.13;5090250;28;8830;-59
2022/01/12 00:44:35;;;;;;;;;3.00;2.80;;;;;2.04;80.61;101790.59;5090989;28;9000;-59
2022/01/12 00:47:03;;;;;;;;;0.80;0.80;;;;;2.14;80.81;101779.03;5096979;28;8824;-58
2022/01/12 00:49:31;;;;;;;;;4.00;3.60;;;;;2.24;80.37;101779.75;5108981;28;8856;-59
2022/01/12 00:51:58;;;;;;;;;2.80;1.00;;;;;2.28;80.47;101786.72;5111311;28;8843;-59
2022/01/12 00:54:26;;;;;;;;;3.20;3.20;;;;;2.34;80.10;101787.47;5110988;28;8862;-59
2022/01/12 00:56:54;;;;;;;;;1.40;1.40;;;;;2.38;79.38;101794.41;5106018;28;8858;-59
2022/01/12 00:59:22;;;;;;;;;1.00;1.00;;;;;2.42;79.97;101796.06;5089383;28;8852;-59
2022/01/12 01:01:54;;;;;;;;;2.20;1.80;;;;;2.46;80.22;101792.53;5091237;28;8993;-60
2022/01/12 01:04:22;;;;;;;;;2.20;1.80;;;;;2.51;79.66;101803.81;5091065;28;8915;-59
2022/01/12 01:06:50;;;;;;;;;1.40;1.00;;;;;2.57;79.31;101816.84;5095585;28;8938;-59
2022/01/12 01:09:18;;;;;;;;;1.00;1.00;;;;;2.63;79.37;101831.66;5112777;28;9516;-60
2022/01/12 01:11:46;;;;;;;;;3.00;1.40;;;;;2.67;79.23;101842.13;5111633;28;8962;-59
2022/01/12 01:14:21;;;;;;;;;3.00;3.00;;;;;2.70;79.12;101831.53;5113072;28;8857;-59
2022/01/12 01:17:04;;;;;;;;;3.80;2.60;;;;;2.70;79.50;101822.75;5107147;28;8830;-59
2022/01/12 01:28:02;;;;;;;;;0.60;0.60;;;;;2.50;79.91;101819.63;4973871;28;8871;-59
2022/01/12 01:30:29;;;;;;;;;1.80;1.80;;;;;2.51;79.68;101832.72;4967857;28;9555;-59
2022/01/12 01:33:04;;;;;;;;;5.60;3.80;;;;;2.55;79.56;101836.16;5013718;28;8886;-59
2022/01/12 01:35:31;;;;;;;;;3.40;3.40;;;;;2.61;80.04;101831.69;5069514;28;8886;-59
2022/01/12 01:38:00;;;;;;;;;3.40;1.80;;;;;2.67;79.91;101839.47;5084726;28;8842;-59
2022/01/12 01:40:27;;;;;;;;;2.60;2.60;;;;;2.73;79.76;101849.03;5090412;28;8964;-59
2022/01/12 01:43:09;;;;;;;;;1.40;1.40;;;;;2.76;79.05;101844.56;5089998;28;8890;-59
2022/01/12 01:53:52;;;;;;;;;3.60;3.60;;;;;2.69;80.20;101842.94;5110546;28;8862;-59
2022/01/12 01:56:20;;;;;;;;;3.40;3.00;;;;;2.73;79.45;101834.09;5110095;28;8967;-59
2022/01/12 01:58:48;;;;;;;;;4.00;3.60;;;;;2.78;79.80;101842.78;5110436;28;9466;-59
2022/01/12 02:01:16;;;;;;;;;1.00;1.00;;;;;2.82;79.24;101841.84;5110301;28;8850;-59
2022/01/12 02:03:44;;;;;;;;;3.00;0.00;;;;;2.87;79.17;101847.88;5111067;28;8835;-60
2022/01/12 02:06:12;;;;;;;;;1.00;1.00;;;;;2.90;79.15;101861.00;5111639;28;8854;-59
2022/01/12 02:08:40;;;;;;;;;2.20;1.00;;;;;2.94;79.69;101862.66;5090921;28;8826;-59
2022/01/12 02:11:07;;;;;;;;;2.60;2.60;;;;;2.95;79.16;101861.75;5087555;28;9524;-59
2022/01/12 02:13:35;;;;;;;;;3.40;2.60;;;;;2.95;79.34;101861.75;5076547;28;8880;-59
2022/01/12 02:16:03;;;;;;;;;3.40;2.20;;;;;2.93;79.23;101871.44;5068931;28;9270;-59
2022/01/12 02:18:51;;;;;;;;;1.40;1.00;;;;;2.92;78.99;101876.72;5084710;28;9393;-59
2022/01/12 02:35:20;;;;;;;;;1.40;1.40;;;;;3.19;78.51;101844.66;5090975;28;8878;-59
2022/01/12 02:40:35;;;;;;;;;1.40;1.00;;;;;3.17;78.79;101823.63;5091763;28;8965;-60
2022/01/12 02:43:10;;;;;;;;;4.00;3.00;;;;;3.15;78.77;101821.91;5089291;28;8850;-60
2022/01/12 02:51:15;;;;;;;;;3.00;3.00;;;;;3.03;79.20;101825.66;5110267;28;8886;-60
2022/01/12 02:53:42;;;;;;;;;3.00;3.00;;;;;3.01;78.89;101816.91;5110165;28;8856;-59
2022/01/12 02:56:10;;;;;;;;;3.00;3.00;;;;;2.98;78.92;101811.72;5111358;28;8972;-59
2022/01/12 02:58:38;;;;;;;;;2.20;2.20;;;;;2.94;79.32;101820.56;5109312;28;8834;-60
2022/01/12 03:01:27;;;;;;;;;3.00;3.00;;;;;2.93;79.60;101820.56;5109827;28;8870;-59
2022/01/12 03:03:57;;;;;;;;;1.40;1.00;;;;;2.91;79.47;101833.78;5108739;28;9562;-59
2022/01/12 03:06:28;;;;;;;;;1.00;0.40;;;;;2.90;79.18;101845.19;5108191;28;8857;-60
2022/01/12 03:08:56;;;;;;;;;4.00;4.00;;;;;2.90;79.00;101841.69;5089209;28;8877;-59
2022/01/12 03:11:23;;;;;;;;;1.80;1.00;;;;;2.89;79.29;101835.53;5087154;28;9491;-59
2022/01/12 03:13:51;;;;;;;;;1.00;1.00;;;;;2.89;79.21;101834.69;5088991;28;8852;-60
2022/01/12 03:16:22;;;;;;;;;1.40;1.00;;;;;2.88;79.34;101857.50;5089806;28;8887;-59
2022/01/12 03:18:49;;;;;;;;;0.00;0.00;;;;;2.86;78.85;101861.91;5109602;28;8864;-59
2022/01/12 03:21:23;;;;;;;;;1.00;0.20;;;;;2.84;80.02;101860.22;5111017;28;8856;-59
2022/01/12 03:23:51;;;;;;;;;1.40;1.40;;;;;2.86;79.39;101861.03;5109640;28;8848;-59
2022/01/12 03:26:19;;;;;;;;;2.20;2.20;;;;;2.87;79.75;101853.13;5109291;28;8870;-59
2022/01/12 03:28:52;;;;;;;;;1.00;1.00;;;;;2.92;79.69;101843.41;5085736;28;8836;-59
2022/01/12 03:31:22;;;;;;;;;1.00;1.00;;;;;2.98;79.75;101851.19;5089335;28;8864;-59
2022/01/12 03:33:57;;;;;;;;;1.00;1.00;;;;;3.04;79.55;101861.56;5088720;28;8860;-59
2022/01/12 03:36:28;;;;;;;;;1.40;1.00;;;;;3.08;79.46;101852.75;5091140;28;8973;-59
2022/01/12 03:38:55;;;;;;;;;0.60;0.60;;;;;3.10;79.29;101848.31;5115114;28;8848;-59
2022/01/12 03:41:23;;;;;;;;;3.00;1.80;;;;;3.11;78.70;101844.78;5113228;28;8946;-59
2022/01/12 03:43:52;;;;;;;;;3.00;3.00;;;;;3.12;78.76;101850.94;5114266;28;8851;-59
2022/01/12 03:46:20;;;;;;;;;1.00;1.00;;;;;3.13;78.61;101845.66;5112938;28;8840;-59
2022/01/12 03:48:48;;;;;;;;;2.20;1.00;;;;;3.15;79.17;101850.84;5070971;28;8880;-59
2022/01/12 03:51:16;;;;;;;;;1.00;1.00;;;;;3.20;78.83;101852.53;5072856;28;8860;-59
2022/01/12 03:53:44;;;;;;;;;5.20;3.20;;;;;3.23;78.75;101859.47;5072496;28;8844;-59
2022/01/12 03:56:15;;;;;;;;;1.00;1.00;;;;;3.27;78.70;101875.16;5073320;28;8843;-59
2022/01/12 03:58:42;;;;;;;;;1.40;1.40;;;;;3.28;79.05;101876.94;5112118;28;8877;-59
2022/01/12 04:01:10;;;;;;;;;2.80;1.80;;;;;3.30;78.22;101884.78;5114132;28;8851;-60
2022/01/12 04:03:41;;;;;;;;;2.60;2.60;;;;;3.29;78.65;101886.56;5113358;28;8852;-59
2022/01/12 04:09:07;;;;;;;;;2.20;2.20;;;;;3.28;78.93;101869.03;5072764;28;8836;-60
2022/01/12 04:11:35;;;;;;;;;2.00;1.80;;;;;3.28;79.48;101849.72;5108629;28;8848;-59
2022/01/12 04:14:04;;;;;;;;;1.00;1.00;;;;;3.29;78.86;101833.03;5110722;28;8863;-60
2022/01/12 04:16:32;;;;;;;;;4.00;3.00;;;;;3.32;78.72;101852.28;5108405;28;9076;-60
2022/01/12 04:18:59;;;;;;;;;3.00;3.00;;;;;3.33;78.77;101846.09;5091800;28;8894;-60
2022/01/12 04:21:29;;;;;;;;;3.00;3.00;;;;;3.36;79.20;101851.31;5092605;28;8860;-59
2022/01/12 04:23:57;;;;;;;;;3.00;1.80;;;;;3.38;79.22;101844.25;5092877;28;9000;-60
2022/01/12 04:26:25;;;;;;;;;1.00;1.00;;;;;3.42;78.65;101858.22;5094172;28;8854;-60
2022/01/12 04:28:52;;;;;;;;;3.60;3.00;;;;;3.45;78.36;101856.41;5113006;28;8866;-60
2022/01/12 04:31:20;;;;;;;;;3.40;3.00;;;;;3.49;78.39;101855.44;5111912;28;8855;-60
2022/01/12 04:33:48;;;;;;;;;3.80;3.80;;;;;3.50;78.45;101851.94;5111796;28;8868;-60
2022/01/12 04:36:16;;;;;;;;;2.20;2.20;;;;;3.53;78.57;101851.84;5110104;28;8841;-60
2022/01/12 04:38:43;;;;;;;;;3.00;3.00;;;;;3.56;78.67;101850.91;5091695;28;8845;-59
2022/01/12 04:41:11;;;;;;;;;4.00;4.00;;;;;3.59;78.44;101850.84;5092014;28;8854;-60
2022/01/12 04:43:39;;;;;;;;;3.00;3.00;;;;;3.62;78.14;101849.00;5089866;28;8856;-60
2022/01/12 04:49:07;;;;;;;;;2.20;2.20;;;;;3.67;77.79;101844.53;5111274;28;8867;-60
2022/01/12 04:51:35;;;;;;;;;2.20;1.00;;;;;3.71;78.00;101859.34;5110416;28;8851;-60
2022/01/12 04:54:03;;;;;;;;;3.20;3.00;;;;;3.74;78.12;101861.94;5110472;28;8851;-59
2022/01/12 04:56:31;;;;;;;;;3.80;3.00;;;;;3.76;77.66;101865.41;5107537;28;8948;-60
2022/01/12 04:58:58;;;;;;;;;5.20;5.20;;;;;3.78;78.31;101860.97;5091843;28;8857;-60
2022/01/12 05:01:28;;;;;;;;;4.00;4.00;;;;;3.80;78.43;101867.94;5090453;28;8871;-60
2022/01/12 05:06:56;;;;;;;;;2.20;1.00;;;;;3.85;77.65;101867.84;5096411;28;8850;-60
2022/01/12 05:09:48;;;;;;;;;3.00;3.00;;;;;3.87;78.37;101871.28;5111327;28;9513;-59
2022/01/12 05:15:10;;;;;;;;;0.00;0.00;;;;;3.88;78.15;101875.69;5111288;28;8885;-60
2022/01/12 05:17:38;;;;;;;;;3.20;3.20;;;;;3.89;77.73;101869.53;5095218;28;9222;-59
2022/01/12 05:20:06;;;;;;;;;2.20;2.20;;;;;3.90;77.91;101879.16;5090165;28;9342;-60
2022/01/12 05:22:33;;;;;;;;;3.00;3.00;;;;;3.91;77.97;101875.63;5090527;28;8849;-59
2022/01/12 05:25:01;;;;;;;;;2.20;2.20;;;;;3.92;78.25;101877.34;5089999;28;8872;-60
2022/01/12 05:27:29;;;;;;;;;3.00;1.00;;;;;3.92;77.81;101879.97;5100716;28;8975;-60
2022/01/12 05:29:57;;;;;;;;;3.80;3.00;;;;;3.92;77.64;101885.25;5110937;28;9537;-60
2022/01/12 05:32:26;;;;;;;;;3.40;3.00;;;;;3.92;78.42;101891.41;5109104;28;8848;-59
2022/01/12 05:34:58;;;;;;;;;3.20;3.00;;;;;3.93;77.81;101900.16;5108932;28;8839;-60
2022/01/12 05:37:26;;;;;;;;;3.20;3.20;;;;;3.93;78.57;101901.03;5098346;28;8841;-59
2022/01/12 05:39:53;;;;;;;;;3.00;3.00;;;;;3.94;77.85;101909.78;5089854;28;8871;-59
2022/01/12 05:42:26;;;;;;;;;4.60;4.60;;;;;3.94;78.51;101912.44;5089017;28;8878;-59
2022/01/12 05:44:54;;;;;;;;;4.00;4.00;;;;;3.93;77.75;101922.13;5087639;28;8865;-59
2022/01/12 05:47:36;;;;;;;;;4.80;4.40;;;;;3.94;78.22;101928.22;5098818;28;8905;-60
2022/01/12 05:50:03;;;;;;;;;1.80;1.00;;;;;3.92;78.32;101923.03;5103875;28;8972;-59
2022/01/12 05:52:30;;;;;;;;;3.00;3.00;;;;;3.93;77.86;101926.50;5088053;28;8864;-59
2022/01/12 05:54:59;;;;;;;;;3.00;3.00;;;;;3.93;77.93;101935.28;5086744;28;8846;-60
2022/01/12 05:57:28;;;;;;;;;5.20;4.80;;;;;3.93;78.47;101929.13;5088553;28;8942;-59
2022/01/12 05:59:55;;;;;;;;;4.00;4.00;;;;;3.92;77.97;101919.50;5089341;28;9101;-59
2022/01/12 06:02:23;;;;;;;;;3.60;3.60;;;;;3.91;78.31;101923.03;5105635;28;9097;-59
2022/01/12 06:04:51;;;;;;;;;3.00;3.00;;;;;3.89;78.54;101909.03;5105622;28;8848;-59
2022/01/12 06:07:19;;;;;;;;;3.80;3.60;;;;;3.85;78.42;101896.81;5106952;28;8982;-59
2022/01/12 06:09:47;;;;;;;;;3.00;1.80;;;;;3.79;78.43;101902.19;5107384;28;9010;-59
2022/01/12 06:12:15;;;;;;;;;5.60;5.60;;;;;3.74;78.42;101904.94;5105228;28;8857;-59
2022/01/12 06:14:42;;;;;;;;;3.00;3.00;;;;;3.70;78.30;101902.41;5105766;28;8851;-59
2022/01/12 06:17:10;;;;;;;;;3.80;3.80;;;;;3.67;78.62;101902.47;5105470;28;9105;-59
2022/01/12 06:19:38;;;;;;;;;2.60;1.00;;;;;3.66;78.41;101899.88;5106946;28;8872;-59
2022/01/12 06:22:06;;;;;;;;;3.00;3.00;;;;;3.66;78.83;101892.84;5104879;28;8856;-59
2022/01/12 06:24:33;;;;;;;;;3.00;3.00;;;;;3.65;78.41;101890.22;5104361;28;8932;-59
2022/01/12 06:27:03;;;;;;;;;4.00;4.00;;;;;3.64;78.63;101891.97;5104255;28;8858;-59
2022/01/12 06:29:40;;;;;;;;;4.40;3.60;;;;;3.64;78.80;101897.25;5102605;28;8993;-59
2022/01/12 06:32:08;;;;;;;;;6.40;5.20;;;;;3.67;79.14;101905.13;5099101;28;9529;-59
2022/01/12 06:34:36;;;;;;;;;4.00;3.00;;;;;3.70;78.74;101907.66;5105125;28;8824;-59
2022/01/12 06:37:04;;;;;;;;;3.60;3.60;;;;;3.73;78.70;101905.84;5101996;28;8859;-59
2022/01/12 06:39:31;;;;;;;;;3.00;3.00;;;;;3.75;78.69;101919.84;5099820;28;8908;-59
2022/01/12 06:41:59;;;;;;;;;3.40;3.40;;;;;3.79;78.78;101912.75;5100589;28;9014;-59
2022/01/12 06:44:26;;;;;;;;;2.20;2.20;;;;;3.82;78.20;101912.69;5101202;28;8840;-59
2022/01/12 06:46:56;;;;;;;;;2.20;0.80;;;;;3.86;78.43;101924.91;5099520;28;8862;-60
2022/01/12 06:49:24;;;;;;;;;3.20;3.20;;;;;3.91;78.01;101920.41;5099883;28;9572;-59
2022/01/12 06:51:53;;;;;;;;;6.80;5.60;;;;;3.94;78.19;101920.34;5100238;28;8994;-59
2022/01/12 06:54:21;;;;;;;;;4.00;2.20;;;;;3.96;77.95;101911.50;5100537;28;8877;-59
2022/01/12 06:56:48;;;;;;;;;2.60;2.60;;;;;3.99;78.25;101910.56;5098180;28;8870;-59
2022/01/12 06:59:16;;;;;;;;;4.00;4.00;;;;;4.00;77.70;101910.53;5097534;28;8871;-59
2022/01/12 07:01:44;;;;;;;;;1.40;1.40;;;;;4.02;77.99;101924.56;5097161;28;8869;-59
2022/01/12 07:04:11;;;;;;;;;4.00;4.00;;;;;4.05;78.15;101927.09;5099818;28;8855;-60
2022/01/12 07:06:39;;;;;;;;;6.80;4.40;;;;;4.06;77.85;101928.00;5097684;28;9127;-59
2022/01/12 07:09:07;;;;;;;;;2.60;1.80;;;;;4.06;78.25;101931.50;5095940;28;9117;-59
2022/01/12 07:11:35;;;;;;;;;2.80;2.60;;;;;4.08;77.97;101932.34;5096990;28;8835;-59
2022/01/12 07:14:03;;;;;;;;;3.20;1.80;;;;;4.08;77.59;101937.59;5097888;28;8851;-59
2022/01/12 07:16:31;;;;;;;;;4.40;4.00;;;;;4.07;77.93;101935.00;5095841;28;9191;-59
2022/01/12 07:18:59;;;;;;;;;3.00;3.00;;;;;4.07;78.34;101935.88;5094539;28;8863;-59
2022/01/12 07:21:28;;;;;;;;;7.40;6.20;;;;;4.08;77.97;101942.00;5099178;28;8859;-59
2022/01/12 07:23:57;;;;;;;;;3.40;3.40;;;;;4.07;77.63;101949.06;5098178;28;8846;-59
2022/01/12 07:26:25;;;;;;;;;3.00;3.00;;;;;4.08;77.53;101952.53;5099718;28;8932;-59
2022/01/12 07:28:53;;;;;;;;;5.20;4.00;;;;;4.07;77.82;101958.72;5097940;28;8852;-59
2022/01/12 07:31:21;;;;;;;;;6.40;5.60;;;;;4.09;77.94;101956.91;5096815;28;8840;-60
2022/01/12 07:33:50;;;;;;;;;3.00;3.00;;;;;4.09;77.79;101956.91;5095831;28;8843;-60
2022/01/12 07:36:17;;;;;;;;;6.60;6.60;;;;;4.10;77.53;101962.16;5096827;28;8852;-60
2022/01/12 07:38:48;;;;;;;;;4.40;3.40;;;;;4.11;77.75;101968.31;5096338;28;8848;-59
2022/01/12 07:41:15;;;;;;;;;4.00;3.20;;;;;4.11;77.83;101971.78;5097204;28;9117;-59
2022/01/12 07:43:43;;;;;;;;;1.80;1.80;;;;;4.12;77.49;101980.59;5095678;28;8885;-59
2022/01/12 07:46:11;;;;;;;;;3.40;1.80;;;;;4.13;78.13;101982.31;5093677;28;8851;-59
2022/01/12 07:48:39;;;;;;;;;4.00;4.00;;;;;4.14;77.54;101981.41;5099669;28;8886;-59
2022/01/12 07:51:08;;;;;;;;;3.00;3.00;;;;;4.15;77.23;101983.13;5096690;28;8847;-60
2022/01/12 07:53:36;;;;;;;;;1.40;1.40;;;;;4.17;77.35;101984.84;5096738;28;9519;-60
2022/01/12 07:56:03;;;;;;;;;3.20;3.20;;;;;4.22;77.72;101990.03;5095418;28;8852;-59
2022/01/12 07:58:31;;;;;;;;;4.80;4.80;;;;;4.22;77.17;101990.91;5095584;28;8863;-59
2022/01/12 08:00:59;;;;;;;;;15.60;14.40;;;;;4.26;77.51;101995.19;5093618;28;8893;-60
2022/01/12 08:03:27;;;;;;;;;3.80;3.40;;;;;4.28;77.53;101996.03;5087035;28;8860;-59
2022/01/12 08:05:55;;;;;;;;;4.80;4.80;;;;;4.31;78.06;102005.66;5094080;28;8860;-60
2022/01/12 08:08:23;;;;;;;;;3.60;3.60;;;;;4.32;77.43;102010.00;5094511;28;9131;-59
2022/01/12 08:10:50;;;;;;;;;4.00;2.60;;;;;4.36;77.43;102022.25;5099507;28;8861;-59
2022/01/12 08:13:18;;;;;;;;;3.00;3.00;;;;;4.37;77.13;102018.69;5093910;28;9685;-59
2022/01/12 08:15:46;;;;;;;;;3.00;3.00;;;;;4.36;77.50;102030.16;5088504;28;8885;-59
2022/01/12 08:18:14;;;;;;;;;4.80;4.80;;;;;4.35;77.61;102045.09;5099087;28;8848;-59
2022/01/12 08:20:42;;;;;;;;;5.60;5.20;;;;;4.35;77.31;102046.88;5096724;28;8863;-60
2022/01/12 08:23:12;;;;;;;;;5.60;5.60;;;;;4.33;77.25;102039.00;5098057;28;9104;-60
2022/01/12 08:25:40;;;;;;;;;6.20;6.20;;;;;4.29;77.33;102032.06;5099755;28;8944;-60
2022/01/12 08:28:07;;;;;;;;;7.00;6.40;;;;;4.28;77.67;102034.72;5098448;28;8874;-59
2022/01/12 08:30:35;;;;;;;;;6.40;6.40;;;;;4.25;77.88;102035.66;5094451;28;9174;-60
2022/01/12 08:33:03;;;;;;;;;3.00;3.00;;;;;4.24;77.94;102027.75;5095968;28;8881;-60
2022/01/12 08:35:31;;;;;;;;;4.40;4.40;;;;;4.23;77.56;102033.94;5094379;28;8870;-59
2022/01/12 08:37:59;;;;;;;;;6.20;6.20;;;;;4.23;77.52;102032.19;5096536;28;8877;-60
2022/01/12 08:40:26;;;;;;;;;7.00;6.60;;;;;4.25;77.61;102032.16;5094680;28;9573;-59
2022/01/12 08:42:54;;;;;;;;;5.20;5.20;;;;;4.27;77.98;102048.81;5098561;28;8855;-60
2022/01/12 08:45:22;;;;;;;;;7.20;6.60;;;;;4.28;77.82;102045.28;5098998;28;8865;-59
2022/01/12 08:47:49;;;;;;;;;8.80;8.20;;;;;4.29;77.95;102041.72;5094240;28;8882;-60
2022/01/12 08:50:17;;;;;;;;;6.00;6.00;;;;;4.32;77.47;102046.94;5097250;28;9155;-60
2022/01/12 08:52:46;;;;;;;;;4.00;4.00;;;;;4.35;77.69;102049.53;5096604;28;8856;-60
2022/01/12 08:55:14;;;;;;;;;7.80;4.00;;;;;4.38;77.59;102055.59;5098135;28;9133;-59
2022/01/12 08:57:41;;;;;;;;;6.20;6.20;;;;;4.39;77.59;102044.16;5093628;28;8843;-60
2022/01/12 09:00:09;;;;;;;;;9.00;8.60;;;;;4.43;77.40;102050.22;5095903;28;9141;-60
2022/01/12 09:02:37;;;;;;;;;9.00;9.00;;;;;4.45;77.72;102045.78;5098966;28;9011;-60
2022/01/12 09:05:05;;;;;;;;;5.40;5.00;;;;;4.47;77.30;102043.97;5093265;28;8864;-60
2022/01/12 09:07:32;;;;;;;;;9.80;9.80;;;;;4.49;77.29;102060.66;5096567;28;9140;-60
2022/01/12 09:10:00;;;;;;;;;9.60;8.20;;;;;4.50;77.62;102062.38;5095216;28;9105;-60
2022/01/12 09:12:28;;;;;;;;;4.00;4.00;;;;;4.51;77.54;102072.03;5095288;28;8851;-60
2022/01/12 09:14:56;;;;;;;;;6.40;6.00;;;;;4.53;77.53;102067.59;5097801;28;9171;-59
2022/01/12 09:17:24;;;;;;;;;11.60;11.20;;;;;4.54;77.14;102075.47;5097660;28;8968;-59
2022/01/12 09:19:51;;;;;;;;;4.80;4.60;;;;;4.56;77.32;102072.81;5096282;28;9208;-59
2022/01/12 09:22:19;;;;;;;;;9.60;8.20;;;;;4.57;77.16;102080.69;5097402;28;9135;-59
2022/01/12 09:24:49;;;;;;;;;5.60;5.60;;;;;4.58;77.37;102086.84;5096669;28;8848;-59
2022/01/12 09:27:17;;;;;;;;;8.60;7.80;;;;;4.58;77.49;102089.47;5095441;28;8851;-59
2022/01/12 09:29:44;;;;;;;;;7.00;7.00;;;;;4.60;77.35;102098.22;5099355;28;8840;-60
2022/01/12 09:32:13;;;;;;;;;4.00;3.00;;;;;4.59;77.29;102094.72;5096063;28;9037;-59
2022/01/12 09:34:41;;;;;;;;;5.20;5.20;;;;;4.60;77.26;102098.22;5096234;28;8855;-59
2022/01/12 09:37:08;;;;;;;;;8.60;8.60;;;;;4.60;77.86;102100.84;5095536;28;8856;-59
2022/01/12 09:39:36;;;;;;;;;12.40;12.40;;;;;4.62;77.50;102110.47;5094061;28;9148;-60
2022/01/12 09:42:04;;;;;;;;;8.20;6.40;;;;;4.63;77.49;102106.09;5094724;28;8840;-60
2022/01/12 09:44:31;;;;;;;;;5.60;4.00;;;;;4.64;77.41;102108.66;5097950;28;8852;-60
2022/01/12 09:46:59;;;;;;;;;11.60;9.20;;;;;4.66;77.04;102114.81;5095458;28;8878;-60
2022/01/12 09:49:27;;;;;;;;;6.40;6.00;;;;;4.66;76.86;102109.53;5094974;28;9557;-60
2022/01/12 09:51:57;;;;;;;;;1.80;1.00;;;;;4.70;77.11;102107.66;5095863;28;9145;-60
2022/01/12 09:54:27;;;;;;;;;5.20;4.80;;;;;4.71;77.19;102110.28;5094197;28;8961;-60
2022/01/12 09:56:55;;;;;;;;;9.40;8.20;;;;;4.71;77.09;102105.00;5095812;28;8851;-58
2022/01/12 09:59:22;;;;;;;;;3.00;3.00;;;;;4.71;77.65;102106.78;5096900;28;9185;-58
2022/01/12 10:01:52;;;;;;;;;7.00;7.00;;;;;4.72;77.14;102105.88;5095055;28;8887;-57
2022/01/12 10:04:20;;;;;;;;;4.00;4.00;;;;;4.73;77.65;102100.56;5095769;28;9418;-57
2022/01/12 10:06:48;;;;;;;;;7.40;7.00;;;;;4.76;76.98;102097.88;5095020;28;8866;-61
2022/01/12 10:09:16;;;;;;;;;13.60;12.20;;;;;4.78;77.09;102098.69;5095449;28;8875;-60
2022/01/12 10:11:44;;;;;;;;;5.60;5.60;;;;;4.82;77.28;102102.13;5095278;28;8956;-60
2022/01/12 10:14:11;;;;;;;;;11.60;10.80;;;;;4.85;76.68;102110.84;5090727;28;9170;-60
2022/01/12 10:16:39;;;;;;;;;11.20;9.20;;;;;4.89;77.38;102098.47;5091957;28;8982;-60
2022/01/12 10:19:07;;;;;;;;;6.80;6.80;;;;;4.92;76.98;102101.03;5095836;28;8872;-60
2022/01/12 10:21:34;;;;;;;;;7.60;7.60;;;;;4.97;76.99;102093.88;5095019;28;8864;-60
2022/01/12 10:24:01;;;;;;;;;7.40;6.40;;;;;5.02;76.81;102097.31;5095316;28;8869;-60
2022/01/12 10:26:29;;;;;;;;;7.00;7.00;;;;;5.08;76.39;102086.59;5093533;28;8857;-57
2022/01/12 10:28:57;;;;;;;;;7.80;6.60;;;;;5.13;76.82;102088.22;5092328;28;8881;-58
2022/01/12 10:31:25;;;;;;;;;10.40;8.00;;;;;5.19;76.92;102081.94;5091104;28;8866;-58
2022/01/12 10:33:53;;;;;;;;;8.60;4.40;;;;;5.25;76.47;102087.06;5091671;28;8878;-58
2022/01/12 10:36:20;;;;;;;;;6.20;6.20;;;;;5.28;76.29;102093.16;5094164;28;8875;-58
2022/01/12 10:38:48;;;;;;;;;8.60;8.60;;;;;5.30;76.13;102080.78;5093425;28;8958;-58
2022/01/12 10:41:16;;;;;;;;;12.20;9.20;;;;;5.36;76.18;102077.09;5095070;28;8928;-58
2022/01/12 10:43:44;;;;;;;;;6.40;6.40;;;;;5.40;76.58;102084.06;5075074;28;8850;-58
2022/01/12 10:46:12;;;;;;;;;7.40;7.00;;;;;5.42;76.06;102090.16;5074071;28;8944;-58
2022/01/12 10:48:40;;;;;;;;;5.20;4.40;;;;;5.44;76.34;102091.00;5070183;28;8882;-58
2022/01/12 10:51:08;;;;;;;;;10.80;10.80;;;;;5.44;76.43;102091.00;5073141;28;8862;-58
2022/01/12 10:53:36;;;;;;;;;9.60;9.00;;;;;5.44;76.55;102097.16;5070202;28;9185;-58
2022/01/12 10:56:05;;;;;;;;;7.80;7.40;;;;;5.45;76.32;102105.94;5071456;28;8859;-58
2022/01/12 10:58:32;;;;;;;;;6.60;6.60;;;;;5.46;76.23;102107.69;5072868;28;8854;-58
2022/01/12 11:01:00;;;;;;;;;11.60;7.40;;;;;5.48;76.19;102105.88;5069854;28;8870;-58
2022/01/12 11:03:29;;;;;;;;;6.40;4.00;;;;;5.49;76.39;102107.63;5072654;28;8834;-58
2022/01/12 11:05:57;;;;;;;;;15.80;13.40;;;;;5.49;76.59;102104.97;5070811;28;8850;-58
2022/01/12 11:08:25;;;;;;;;;6.80;6.80;;;;;5.48;76.20;102105.88;5067378;28;9159;-58
2022/01/12 11:10:52;;;;;;;;;8.60;8.60;;;;;5.47;76.27;102112.91;5067041;28;8876;-58
2022/01/12 11:13:20;;;;;;;;;11.80;8.60;;;;;5.44;76.85;102120.94;5071789;28;8876;-58
2022/01/12 11:15:48;;;;;;;;;11.60;9.80;;;;;5.47;76.45;102123.50;5070634;28;8837;-58
2022/01/12 11:18:16;;;;;;;;;11.20;10.00;;;;;5.51;76.53;102126.94;5069048;28;8963;-58
2022/01/12 11:20:44;;;;;;;;;12.00;8.20;;;;;5.50;76.09;102130.47;5072670;28;8850;-58
2022/01/12 11:23:12;;;;;;;;;8.60;7.00;;;;;5.52;76.38;102128.66;5066897;28;9112;-58
2022/01/12 11:25:40;;;;;;;;;9.20;8.20;;;;;5.54;76.65;102133.00;5074574;28;9016;-58
2022/01/12 11:28:08;;;;;;;;;10.40;10.00;;;;;5.58;76.44;102131.16;5067930;28;9570;-58
2022/01/12 11:30:35;;;;;;;;;13.80;11.20;;;;;5.62;76.40;102127.56;5073097;28;9153;-58
2022/01/12 11:33:03;;;;;;;;;12.60;11.60;;;;;5.69;76.18;102127.34;5069597;28;8862;-58
2022/01/12 11:35:32;;;;;;;;;14.60;13.80;;;;;5.75;76.01;102126.31;5073792;28;8854;-58
2022/01/12 11:38:02;;;;;;;;;11.60;11.20;;;;;5.77;76.08;102135.09;5070928;28;9178;-58
2022/01/12 11:40:30;;;;;;;;;8.20;7.40;;;;;5.78;76.29;102128.91;5072266;28;8888;-58
2022/01/12 11:42:57;;;;;;;;;11.60;11.60;;;;;5.78;76.05;102137.69;5087466;28;8852;-58
2022/01/12 11:45:25;;;;;;;;;15.40;11.60;;;;;5.82;76.04;102123.53;5091584;28;8852;-58
2022/01/12 11:47:53;;;;;;;;;22.40;19.80;;;;;5.86;76.16;102119.88;5086335;28;8884;-58
2022/01/12 11:50:21;;;;;;;;;15.00;15.00;;;;;5.88;76.13;102130.44;5090493;28;8882;-58
2022/01/12 11:52:48;;;;;;;;;12.20;12.20;;;;;5.87;75.98;102129.59;5090297;28;8994;-58
2022/01/12 11:55:16;;;;;;;;;14.60;12.40;;;;;5.87;76.21;102132.22;5094457;28;8852;-58
2022/01/12 11:57:44;;;;;;;;;16.20;15.60;;;;;5.83;76.49;102129.66;5095107;28;8878;-58
2022/01/12 12:00:12;;;;;;;;;16.80;15.20;;;;;5.81;76.36;102134.13;5096396;28;8985;-58
2022/01/12 12:02:39;;;;;;;;;12.40;11.60;;;;;5.79;76.28;102130.63;5099366;28;8882;-58
2022/01/12 12:05:07;;;;;;;;;12.00;10.80;;;;;5.78;76.27;102150.91;5096200;28;8865;-58
2022/01/12 12:07:35;;;;;;;;;9.40;6.80;;;;;5.77;76.67;102148.31;5097494;28;8866;-60
2022/01/12 12:10:03;;;;;;;;;12.40;10.80;;;;;5.72;76.47;102135.22;5094698;28;8844;-58
2022/01/12 12:12:31;;;;;;;;;7.00;6.40;;;;;5.69;76.70;102134.44;5097070;28;8867;-58
2022/01/12 12:14:58;;;;;;;;;15.60;13.40;;;;;5.64;76.73;102133.66;5096040;28;9195;-58
2022/01/12 12:17:26;;;;;;;;;15.80;14.60;;;;;5.60;76.58;102139.91;5097973;28;9770;-58
2022/01/12 12:19:54;;;;;;;;;12.00;12.00;;;;;5.54;77.30;102134.81;5096334;28;8867;-58
2022/01/12 12:22:22;;;;;;;;;6.20;4.80;;;;;5.53;76.76;102138.34;5093874;28;9011;-58
2022/01/12 12:24:49;;;;;;;;;16.00;14.60;;;;;5.51;77.38;102127.81;5099668;28;9325;-58
2022/01/12 12:27:17;;;;;;;;;17.00;12.60;;;;;5.49;77.30;102124.34;5098956;28;8863;-58
2022/01/12 12:29:45;;;;;;;;;12.60;12.20;;;;;5.50;76.80;102130.47;5097522;28;8881;-58
2022/01/12 12:32:13;;;;;;;;;15.00;15.00;;;;;5.47;76.80;102134.06;5093457;28;8844;-58
2022/01/12 12:34:41;;;;;;;;;10.00;9.60;;;;;5.45;77.19;102117.38;5096311;28;8893;-58
2022/01/12 12:37:09;;;;;;;;;16.80;12.80;;;;;5.45;77.32;102121.78;5097395;28;8848;-58
2022/01/12 12:39:37;;;;;;;;;18.20;16.40;;;;;5.44;77.51;102120.06;5097566;28;8828;-58
2022/01/12 12:42:04;;;;;;;;;11.60;10.20;;;;;5.42;77.76;102119.22;5097264;28;9240;-61
2022/01/12 12:44:32;;;;;;;;;16.00;15.60;;;;;5.39;77.70;102124.59;5097524;28;8851;-60